Hyde, Louisiana
Current Conditions -  °F | °C
As of 6:15 PM on Friday 21 Nov 2014 (Local Time) from KHZR Reporting Station
Overcast Overcast  
Wind Chill: 63°   Ceiling: 11000
Heat Index: 63°   Visibility: 10mi
Dew Point: 50°   Wind: 8mph
Humidity: 63%   Direction: 100°E
Pressure: 30.25"   Gusts: NA
Location:  30.9317°N, 91.8606°W
Report Text: KHZR 220015Z AUTO 10007KT 10SM OVC110 17/10 A3025 RMK AO2 T01720100
Loading
Personal Weather Stations






























Interactive Weather Map New forecast layout! Learn more

10-Day Weather Forecast

Advertisements
Track Severe Weather on mobile